Time;durP1;ratioP1;P1;durP2;ratioP2;P2;SDS_P1;SDS_P2;PMS_P1;PMS_P2;Temp;Humidity;BMP_temperature;BMP_pressure;BME280_temperature;BME280_humidity;BME280_pressure;Samples;Min_cycle;Max_cycle;Signal;HPM_P1;HPM_P2
2023/12/06 00:00:40;;;;;;;100.73;47.60;;;;;;;0.01;64.87;99922.91;4973692;28;98161;-73
2023/12/06 00:03:06;;;;;;;99.70;50.10;;;;;;;0.02;65.19;99925.47;4952648;28;101015;-74
2023/12/06 00:05:31;;;;;;;98.03;48.73;;;;;;;-0.08;65.45;99922.03;4963388;28;97444;-73
2023/12/06 00:07:57;;;;;;;106.00;51.40;;;;;;;-0.05;64.99;99916.00;4972075;28;96887;-73
2023/12/06 00:10:23;;;;;;;95.13;46.33;;;;;;;-0.05;65.23;99913.44;4956013;28;100467;-74
2023/12/06 00:12:48;;;;;;;91.77;46.37;;;;;;;0.04;64.93;99918.59;4972841;28;97299;-74
2023/12/06 00:15:15;;;;;;;104.27;51.07;;;;;;;-0.10;64.71;99907.38;4956972;28;99262;-73
2023/12/06 00:17:40;;;;;;;101.93;51.40;;;;;;;0.02;64.92;99914.28;4972095;28;96741;-74
2023/12/06 00:20:07;;;;;;;103.57;51.07;;;;;;;-0.07;64.71;99889.31;4972565;28;97416;-73
2023/12/06 00:22:32;;;;;;;103.67;49.50;;;;;;;0.04;64.57;99902.25;4953502;28;101302;-73
2023/12/06 00:24:57;;;;;;;101.17;48.63;;;;;;;0.02;64.66;99903.97;4944345;28;97350;-74
2023/12/06 00:27:23;;;;;;;103.70;50.80;;;;;;;0.07;64.62;99904.84;4983562;28;96908;-74
2023/12/06 00:29:49;;;;;;;105.83;51.60;;;;;;;0.08;64.16;99910.00;4954948;28;97497;-74
2023/12/06 00:32:14;;;;;;;97.37;48.87;;;;;;;0.14;64.40;99916.91;4979409;28;98170;-74
2023/12/06 00:34:40;;;;;;;101.70;47.53;;;;;;;0.08;64.50;99909.16;4980658;28;97488;-74
2023/12/06 00:37:05;;;;;;;103.70;51.93;;;;;;;-0.06;64.83;99894.50;4981739;28;96811;-74
2023/12/06 00:39:31;;;;;;;98.90;49.43;;;;;;;-0.05;65.02;99910.84;4964703;28;101956;-74
2023/12/06 00:41:56;;;;;;;99.63;50.20;;;;;;;-0.09;65.13;99910.00;4960832;28;101311;-74
2023/12/06 00:44:22;;;;;;;95.50;47.43;;;;;;;-0.16;64.95;99897.91;4955751;28;97189;-74
2023/12/06 00:46:47;;;;;;;98.47;46.27;;;;;;;-0.09;64.70;99903.94;4952110;28;96891;-73
2023/12/06 00:49:13;;;;;;;100.60;50.07;;;;;;;-0.12;65.14;99915.09;4971336;28;97555;-73
2023/12/06 00:51:39;;;;;;;94.20;47.40;;;;;;;-0.47;65.84;99894.34;4971713;28;97531;-74
2023/12/06 00:54:05;;;;;;;93.60;46.93;;;;;;;-0.49;66.31;99915.00;4967602;28;97757;-73
2023/12/06 00:56:30;;;;;;;95.67;48.63;;;;;;;-0.38;66.35;99919.31;4953783;28;96769;-74
2023/12/06 00:58:56;;;;;;;97.27;49.13;;;;;;;-0.52;66.43;99916.72;4973185;28;97466;-73
2023/12/06 01:01:22;;;;;;;96.30;49.30;;;;;;;-0.38;66.15;99917.59;4938674;28;100826;-74
2023/12/06 01:03:47;;;;;;;94.00;46.33;;;;;;;-0.26;65.81;99919.41;4951409;28;97382;-73
2023/12/06 01:06:13;;;;;;;94.30;47.37;;;;;;;-0.28;65.61;99911.63;4946597;28;96855;-73
2023/12/06 01:08:38;;;;;;;91.63;45.60;;;;;;;-0.30;65.83;99921.06;4971565;28;100873;-73
2023/12/06 01:11:04;;;;;;;103.13;49.43;;;;;;;-0.26;65.77;99907.34;4930179;28;102130;-73
2023/12/06 01:13:30;;;;;;;94.67;45.40;;;;;;;-0.28;65.59;99910.78;4963716;28;98345;-73
2023/12/06 01:15:56;;;;;;;95.07;46.37;;;;;;;-0.27;65.91;99915.94;4980340;28;96830;-74
2023/12/06 01:18:21;;;;;;;92.63;48.00;;;;;;;-0.40;66.33;99914.19;4980285;28;97459;-74
2023/12/06 01:20:47;;;;;;;95.83;49.47;;;;;;;-0.35;65.63;99916.75;4987297;28;97822;-74
2023/12/06 01:23:12;;;;;;;95.17;48.30;;;;;;;-0.44;66.33;99915.00;4983665;28;96880;-74
2023/12/06 01:25:38;;;;;;;102.13;50.23;;;;;;;-0.76;66.84;99899.38;4984499;28;96837;-74
2023/12/06 01:28:03;;;;;;;99.30;49.10;;;;;;;-0.61;67.27;99909.78;4969507;28;100811;-73
2023/12/06 01:30:29;;;;;;;99.03;49.20;;;;;;;-0.65;67.27;99904.59;4963598;28;97505;-73
2023/12/06 01:32:54;;;;;;;92.87;47.37;;;;;;;-0.59;67.28;99909.78;4966351;28;97310;-73
2023/12/06 01:35:20;;;;;;;97.77;46.27;;;;;;;-0.60;67.01;99902.91;4964820;28;96857;-74
2023/12/06 01:37:45;;;;;;;88.10;44.73;;;;;;;-0.63;67.12;99916.66;4993578;28;99491;-73
2023/12/06 01:40:11;;;;;;;86.17;45.20;;;;;;;-0.62;67.38;99912.34;4949732;28;101612;-74
2023/12/06 01:42:36;;;;;;;92.20;47.47;;;;;;;-0.47;66.90;99909.81;4973621;28;96777;-74
2023/12/06 01:45:02;;;;;;;94.50;47.77;;;;;;;-0.42;66.60;99887.50;4960783;28;97440;-74
2023/12/06 01:47:29;;;;;;;94.20;48.47;;;;;;;-0.20;66.07;99903.03;4970710;28;97367;-74
2023/12/06 01:49:56;;;;;;;93.93;47.03;;;;;;;-0.28;66.43;99911.63;4965286;28;98997;-74
2023/12/06 01:52:23;;;;;;;102.70;47.77;;;;;;;-0.35;66.28;99907.31;4948137;28;96703;-74
2023/12/06 01:54:49;;;;;;;92.07;47.30;;;;;;;-0.33;66.20;99908.16;4971982;28;97206;-74
2023/12/06 01:57:14;;;;;;;95.50;49.63;;;;;;;-0.44;66.47;99909.84;4964215;28;101734;-74
2023/12/06 01:59:40;;;;;;;87.53;47.03;;;;;;;-0.51;66.54;99911.53;4964094;28;101308;-74
2023/12/06 02:02:05;;;;;;;87.07;44.50;;;;;;;-0.48;66.77;99911.56;4952811;28;96829;-74
2023/12/06 02:04:32;;;;;;;87.40;45.40;;;;;;;-0.38;66.51;99909.88;4970971;28;96857;-74
2023/12/06 02:06:58;;;;;;;87.70;47.63;;;;;;;-0.56;66.52;99905.50;4970553;28;97893;-74
2023/12/06 02:09:23;;;;;;;97.97;47.23;;;;;;;-0.60;67.36;99903.78;4950828;28;101251;-73
2023/12/06 02:11:49;;;;;;;88.73;45.83;;;;;;;-0.58;66.97;99894.34;4966450;28;97339;-76
2023/12/06 02:14:15;;;;;;;90.93;46.43;;;;;;;-0.43;66.65;99906.44;4951193;28;97362;-73
2023/12/06 02:16:41;;;;;;;89.97;45.13;;;;;;;-0.46;66.81;99896.97;4966241;28;97597;-73
2023/12/06 02:19:08;;;;;;;93.13;46.57;;;;;;;-0.44;66.76;99909.00;4987616;28;100941;-74
2023/12/06 02:21:34;;;;;;;90.80;45.77;;;;;;;-0.52;67.28;99902.09;4954098;28;97319;-73
2023/12/06 02:24:00;;;;;;;86.20;46.07;;;;;;;-0.58;67.06;99899.50;4937763;28;97798;-73
2023/12/06 02:26:26;;;;;;;96.17;47.83;;;;;;;-0.48;66.90;99888.34;4969541;28;100973;-75
2023/12/06 02:28:54;;;;;;;92.27;44.57;;;;;;;-0.48;67.45;99896.09;4954669;28;101370;-74
2023/12/06 02:31:20;;;;;;;88.93;46.13;;;;;;;-0.47;66.95;99892.66;4954342;28;96791;-74
2023/12/06 02:33:46;;;;;;;92.10;46.67;;;;;;;-0.52;66.85;99888.34;4969961;28;96792;-74
2023/12/06 02:36:12;;;;;;;89.57;47.43;;;;;;;-0.42;66.71;99886.66;4969605;28;100932;-74
2023/12/06 02:38:39;;;;;;;91.33;45.27;;;;;;;-0.40;67.11;99892.69;4937516;28;101460;-74
2023/12/06 02:41:06;;;;;;;90.97;46.30;;;;;;;-0.60;67.07;99892.59;4970978;28;97282;-74
2023/12/06 02:43:31;;;;;;;91.10;45.60;;;;;;;-0.57;67.16;99888.31;4953568;28;96830;-73
2023/12/06 02:45:57;;;;;;;89.53;44.17;;;;;;;-0.39;67.13;99889.25;4953752;28;97607;-73
2023/12/06 02:48:22;;;;;;;87.13;44.87;;;;;;;-0.48;67.00;99887.50;4969934;28;97389;-73
2023/12/06 02:50:48;;;;;;;94.97;47.23;;;;;;;-0.73;67.58;99877.09;4970453;28;97093;-73
2023/12/06 02:53:13;;;;;;;85.23;46.53;;;;;;;-0.90;68.07;99883.88;4969701;28;97119;-73
2023/12/06 02:55:39;;;;;;;91.47;46.97;;;;;;;-0.76;68.27;99879.63;4951205;28;97636;-74
2023/12/06 02:58:04;;;;;;;90.87;47.07;;;;;;;-0.66;68.04;99872.81;4971175;28;97700;-73
2023/12/06 03:00:30;;;;;;;99.97;49.73;;;;;;;-0.52;68.04;99873.72;4938001;28;96745;-73
2023/12/06 03:02:56;;;;;;;84.63;44.03;;;;;;;-0.53;68.15;99884.88;4969767;28;97120;-74
2023/12/06 03:05:21;;;;;;;93.83;47.50;;;;;;;-0.66;67.69;99883.13;4971740;28;97839;-73
2023/12/06 03:07:46;;;;;;;92.40;47.53;;;;;;;-0.67;68.54;99876.22;4968985;28;98617;-75
2023/12/06 03:10:12;;;;;;;87.80;47.10;;;;;;;-0.81;69.00;99885.63;4971114;28;97383;-74
2023/12/06 03:12:37;;;;;;;93.13;45.77;;;;;;;-0.61;68.19;99872.81;4953015;28;96855;-74
2023/12/06 03:15:03;;;;;;;89.83;47.27;;;;;;;-0.64;68.64;99880.53;4953280;28;100553;-74
2023/12/06 03:17:29;;;;;;;90.67;45.97;;;;;;;-0.85;68.58;99852.94;4969332;28;97391;-74
2023/12/06 03:19:54;;;;;;;88.80;44.97;;;;;;;-0.83;68.69;99875.31;4970782;28;97283;-73
2023/12/06 03:22:20;;;;;;;89.40;46.00;;;;;;;-0.82;68.59;99864.13;4969873;28;96788;-76
2023/12/06 03:24:45;;;;;;;87.63;47.70;;;;;;;-1.00;69.16;99867.47;4953082;28;100827;-73
2023/12/06 03:27:11;;;;;;;85.67;44.63;;;;;;;-0.82;69.63;99877.00;4952948;28;101919;-73
2023/12/06 03:29:37;;;;;;;96.70;49.53;;;;;;;-0.94;69.34;99871.81;4950658;28;96800;-73
2023/12/06 03:32:03;;;;;;;95.23;46.47;;;;;;;-1.12;69.83;99864.84;4970342;28;96883;-74
2023/12/06 03:34:28;;;;;;;87.00;44.20;;;;;;;-1.13;70.15;99873.44;4985870;28;101423;-73
2023/12/06 03:36:53;;;;;;;95.50;45.77;;;;;;;-1.07;70.19;99870.88;4969473;28;97374;-74
2023/12/06 03:39:19;;;;;;;89.23;47.13;;;;;;;-1.09;70.16;99870.00;4937092;28;97144;-75
2023/12/06 03:41:44;;;;;;;88.77;44.63;;;;;;;-1.14;70.49;99861.38;4969857;28;96937;-74
2023/12/06 03:44:10;;;;;;;94.43;46.17;;;;;;;-1.06;70.01;99862.28;4952726;28;101251;-74
2023/12/06 03:46:35;;;;;;;77.93;41.53;;;;;;;-0.99;70.11;99868.34;4950541;28;101009;-74
2023/12/06 03:49:01;;;;;;;96.20;44.50;;;;;;;-0.86;69.88;99869.28;4974657;28;96605;-73
2023/12/06 03:51:26;;;;;;;87.10;46.13;;;;;;;-0.93;69.27;99863.25;4961882;28;96768;-73
2023/12/06 03:53:52;;;;;;;89.10;45.47;;;;;;;-0.97;69.88;99861.47;4954135;28;99666;-74
2023/12/06 03:56:17;;;;;;;88.90;45.40;;;;;;;-1.01;70.30;99864.91;4957302;28;97427;-73
2023/12/06 03:58:43;;;;;;;84.97;45.17;;;;;;;-1.09;70.55;99875.16;4974421;28;96807;-74
2023/12/06 04:01:08;;;;;;;84.77;43.87;;;;;;;-1.01;70.43;99870.91;4974496;28;96794;-74
2023/12/06 04:03:34;;;;;;;82.70;43.00;;;;;;;-0.87;70.29;99870.09;4971774;28;97473;-74
2023/12/06 04:05:59;;;;;;;78.87;42.90;;;;;;;-0.98;70.32;99877.81;4953063;28;101295;-74
2023/12/06 04:08:25;;;;;;;88.33;43.73;;;;;;;-0.94;70.48;99882.97;4947677;28;96793;-73
2023/12/06 04:10:50;;;;;;;97.90;46.10;;;;;;;-0.76;69.91;99876.19;4973174;28;96883;-73
2023/12/06 04:13:16;;;;;;;81.73;43.67;;;;;;;-0.79;70.01;99883.91;4955558;28;101437;-74
2023/12/06 04:15:41;;;;;;;85.17;44.27;;;;;;;-0.94;70.08;99859.78;4955560;28;101561;-74
2023/12/06 04:18:07;;;;;;;94.70;46.97;;;;;;;-0.81;70.69;99880.47;4956411;28;97422;-73
2023/12/06 04:20:33;;;;;;;90.43;45.20;;;;;;;-0.65;70.08;99882.25;4969139;28;96816;-73
2023/12/06 04:22:58;;;;;;;83.20;41.13;;;;;;;-0.48;69.39;99877.19;4954780;28;101174;-74
2023/12/06 04:25:24;;;;;;;88.20;45.10;;;;;;;-0.61;69.94;99880.53;4972857;28;97982;-74
2023/12/06 04:27:49;;;;;;;86.53;42.47;;;;;;;-0.50;69.24;99889.19;4952053;28;97291;-74
2023/12/06 04:30:16;;;;;;;89.87;45.13;;;;;;;-0.44;69.58;99886.63;4974036;28;97195;-74
2023/12/06 04:32:41;;;;;;;82.13;40.50;;;;;;;-0.39;68.91;99890.09;4971709;28;97404;-74
2023/12/06 04:35:09;;;;;;;81.03;41.53;;;;;;;-0.46;68.97;99890.94;4972288;28;97372;-73
2023/12/06 04:37:35;;;;;;;86.33;45.00;;;;;;;-0.54;69.47;99892.63;4971999;28;97620;-73
2023/12/06 04:40:00;;;;;;;77.33;40.60;;;;;;;-0.62;69.91;99890.00;4972450;28;96794;-73
2023/12/06 04:42:26;;;;;;;82.80;41.40;;;;;;;-0.52;69.77;99871.16;4955082;28;98018;-74
2023/12/06 04:44:52;;;;;;;84.80;40.20;;;;;;;-0.33;69.44;99892.69;4956604;28;97330;-75
2023/12/06 04:47:17;;;;;;;83.57;43.43;;;;;;;-0.52;69.15;99894.34;4946920;28;96818;-73
2023/12/06 04:49:43;;;;;;;83.20;43.43;;;;;;;-0.64;69.58;99889.16;4972665;28;97183;-73
2023/12/06 04:52:08;;;;;;;85.20;41.13;;;;;;;-0.63;70.14;99883.13;4971486;28;97500;-74
2023/12/06 04:54:34;;;;;;;83.00;42.80;;;;;;;-0.40;69.72;99908.16;4971934;28;97202;-74
2023/12/06 04:56:59;;;;;;;86.93;42.53;;;;;;;-0.41;69.19;99912.44;4954971;28;97227;-74
2023/12/06 04:59:25;;;;;;;83.23;43.80;;;;;;;-0.28;69.00;99896.16;4955190;28;96750;-73
2023/12/06 05:01:50;;;;;;;87.60;44.97;;;;;;;-0.08;68.54;99918.59;4951858;28;101237;-74
2023/12/06 05:04:17;;;;;;;82.33;45.13;;;;;;;-0.08;68.28;99919.44;4971241;28;101601;-73
2023/12/06 05:06:42;;;;;;;81.53;42.27;;;;;;;0.06;68.43;99913.44;4952240;28;97297;-73
2023/12/06 05:09:07;;;;;;;80.93;41.67;;;;;;;-0.01;67.85;99912.56;4938356;28;96821;-73
2023/12/06 05:11:34;;;;;;;89.70;43.20;;;;;;;-0.11;68.15;99910.84;4959076;28;97537;-74
2023/12/06 05:13:59;;;;;;;87.73;43.03;;;;;;;0.13;68.10;99915.19;4960726;28;98287;-74
2023/12/06 05:16:25;;;;;;;87.93;42.13;;;;;;;0.13;68.26;99921.19;4977499;28;97544;-74
2023/12/06 05:18:50;;;;;;;94.73;45.80;;;;;;;0.02;67.69;99911.72;4971748;28;96755;-74
2023/12/06 05:21:16;;;;;;;93.60;44.53;;;;;;;0.20;67.13;99922.94;4979532;28;101356;-73
2023/12/06 05:23:41;;;;;;;86.70;46.03;;;;;;;0.05;67.58;99925.47;4969868;28;101181;-73
2023/12/06 05:26:07;;;;;;;89.60;46.47;;;;;;;-0.01;68.34;99934.06;4947804;28;96855;-73
2023/12/06 05:28:32;;;;;;;86.63;43.80;;;;;;;-0.07;67.88;99922.88;4961626;28;97008;-73
2023/12/06 05:30:58;;;;;;;86.23;43.90;;;;;;;-0.08;68.50;99934.06;4980464;28;101319;-72
2023/12/06 05:33:23;;;;;;;92.50;45.37;;;;;;;-0.07;68.52;99928.88;4972937;28;97931;-73
2023/12/06 05:35:49;;;;;;;91.87;43.63;;;;;;;-0.07;68.09;99926.31;4971682;28;97196;-73
2023/12/06 05:38:14;;;;;;;98.70;45.33;;;;;;;-0.11;68.53;99937.50;4966254;28;97039;-74
2023/12/06 05:40:40;;;;;;;84.50;42.40;;;;;;;0.09;67.99;99929.81;4952450;28;101872;-73
2023/12/06 05:43:06;;;;;;;88.10;43.90;;;;;;;0.12;67.51;99936.69;4976679;28;101179;-73
2023/12/06 05:45:32;;;;;;;84.47;44.67;;;;;;;-0.08;68.33;99926.31;4942074;28;96819;-74
2023/12/06 05:47:58;;;;;;;89.43;42.77;;;;;;;0.03;68.00;99937.53;4974626;28;97013;-73
2023/12/06 05:50:23;;;;;;;87.03;45.70;;;;;;;-0.05;67.83;99924.59;4978845;28;97642;-72
2023/12/06 05:52:49;;;;;;;87.37;43.93;;;;;;;-0.03;67.94;99929.75;4955550;28;97392;-71
2023/12/06 05:55:16;;;;;;;87.00;42.80;;;;;;;-0.13;67.94;99936.63;4987159;28;97419;-71
2023/12/06 05:57:42;;;;;;;85.80;41.97;;;;;;;-0.06;68.09;99929.75;4946906;28;98472;-71
2023/12/06 06:00:12;;;;;;;89.07;43.27;;;;;;;0.09;67.69;99928.91;4975533;28;97390;-73
2023/12/06 06:02:39;;;;;;;85.60;42.87;;;;;;;0.02;67.55;99924.63;4952336;28;101994;-71
2023/12/06 06:05:05;;;;;;;80.93;42.73;;;;;;;-0.17;68.24;99936.63;4963009;28;97203;-70
2023/12/06 06:07:31;;;;;;;92.33;44.17;;;;;;;-0.28;69.22;99946.88;4956610;28;96841;-72
2023/12/06 06:09:57;;;;;;;88.30;43.80;;;;;;;-0.33;69.36;99933.97;4944163;28;101427;-73
2023/12/06 06:12:22;;;;;;;87.40;44.60;;;;;;;-0.26;68.82;99930.56;4982343;28;101236;-75
2023/12/06 06:14:47;;;;;;;87.93;43.60;;;;;;;-0.07;68.63;99923.72;4971699;28;96779;-72
2023/12/06 06:17:13;;;;;;;91.30;45.60;;;;;;;-0.15;68.18;99935.75;4981352;28;96776;-76
2023/12/06 06:19:39;;;;;;;99.13;47.83;;;;;;;-0.12;68.06;99933.16;4966560;28;101130;-75
2023/12/06 06:22:05;;;;;;;93.87;45.73;;;;;;;-0.39;69.29;99933.09;4961362;28;97403;-75
2023/12/06 06:24:31;;;;;;;95.17;46.70;;;;;;;-0.25;68.72;99936.59;4975695;28;97290;-76
2023/12/06 06:26:57;;;;;;;94.07;45.30;;;;;;;-0.32;68.90;99930.53;4969264;28;96865;-77
2023/12/06 06:29:22;;;;;;;83.40;45.37;;;;;;;-0.22;68.60;99939.16;4966404;28;102367;-76
2023/12/06 06:31:48;;;;;;;98.03;46.63;;;;;;;-0.01;68.67;99946.13;4954779;28;100237;-75
2023/12/06 06:34:13;;;;;;;91.20;46.47;;;;;;;-0.11;68.60;99940.06;4961763;28;96764;-78
2023/12/06 06:36:39;;;;;;;89.90;47.27;;;;;;;-0.06;68.35;99942.66;4963288;28;97437;-75
2023/12/06 06:39:04;;;;;;;88.13;46.87;;;;;;;-0.26;68.82;99937.44;4964052;28;97924;-77
2023/12/06 06:41:30;;;;;;;83.93;45.03;;;;;;;-0.24;69.06;99949.47;4955679;28;98564;-76
2023/12/06 06:43:56;;;;;;;98.40;48.20;;;;;;;-0.17;69.14;99952.09;4950193;28;96867;-75
2023/12/06 06:46:21;;;;;;;83.57;45.97;;;;;;;-0.14;68.75;99954.69;4940097;28;96898;-77
2023/12/06 06:48:48;;;;;;;88.57;45.53;;;;;;;-0.16;68.41;99939.19;4945419;28;101693;-74
2023/12/06 06:51:13;;;;;;;108.77;47.67;;;;;;;-0.08;68.70;99942.66;4959909;28;101280;-75
2023/12/06 06:53:39;;;;;;;92.10;47.10;;;;;;;-0.10;68.87;99951.25;4967800;28;97207;-72
2023/12/06 06:56:05;;;;;;;90.33;46.80;;;;;;;-0.01;68.59;99940.94;4985143;28;97000;-72
2023/12/06 06:58:30;;;;;;;89.37;48.97;;;;;;;-0.05;68.67;99945.25;4968254;28;97183;-73
2023/12/06 07:00:56;;;;;;;84.03;45.67;;;;;;;-0.04;68.15;99959.00;4967868;28;97937;-73
2023/12/06 07:03:21;;;;;;;87.50;45.33;;;;;;;-0.13;68.73;99956.41;4970966;28;96752;-72
2023/12/06 07:05:47;;;;;;;87.10;45.60;;;;;;;-0.20;68.92;99950.38;4963568;28;96736;-72
2023/12/06 07:08:12;;;;;;;88.70;45.30;;;;;;;-0.21;69.13;99960.66;4948794;28;100699;-71
2023/12/06 07:10:38;;;;;;;87.10;46.13;;;;;;;-0.10;68.52;99965.00;4963586;28;100890;-72
2023/12/06 07:13:05;;;;;;;86.73;45.33;;;;;;;-0.11;68.63;99958.13;4972975;28;97231;-72
2023/12/06 07:15:31;;;;;;;92.30;46.77;;;;;;;-0.20;69.30;99957.22;4959867;28;96867;-73
2023/12/06 07:17:56;;;;;;;86.57;46.33;;;;;;;-0.25;68.96;99949.47;4969858;28;97866;-72
2023/12/06 07:20:24;;;;;;;91.60;47.10;;;;;;;-0.20;69.28;99962.38;4968318;28;97420;-73
2023/12/06 07:22:50;;;;;;;90.70;46.20;;;;;;;-0.22;69.19;99957.22;4979053;28;97573;-73
2023/12/06 07:25:15;;;;;;;92.87;46.97;;;;;;;0.12;68.25;99973.69;4967416;28;98120;-72
2023/12/06 07:27:44;;;;;;;83.10;44.87;;;;;;;0.12;68.30;99963.38;4955507;28;101024;-72
2023/12/06 07:30:19;;;;;;;86.93;44.10;;;;;;;0.22;68.06;99972.84;4938163;28;101341;-72
2023/12/06 07:32:45;;;;;;;84.67;43.37;;;;;;;0.12;68.17;99973.69;4987598;28;97284;-72
2023/12/06 07:35:10;;;;;;;95.20;46.63;;;;;;;0.23;67.92;99968.53;4956562;28;97731;-74
2023/12/06 07:37:36;;;;;;;84.60;44.70;;;;;;;0.36;67.61;99962.56;4945736;28;101937;-72
2023/12/06 07:40:03;;;;;;;82.67;43.83;;;;;;;0.12;68.02;99970.25;4964333;28;97368;-72
2023/12/06 07:42:29;;;;;;;87.27;46.63;;;;;;;0.25;67.74;99958.22;4980795;28;96809;-72
2023/12/06 07:44:54;;;;;;;85.30;45.73;;;;;;;0.21;67.80;99955.66;4960917;28;97365;-72
2023/12/06 07:47:20;;;;;;;87.70;44.67;;;;;;;0.24;67.99;99966.84;4954669;28;101448;-72
2023/12/06 07:49:46;;;;;;;86.10;44.13;;;;;;;0.26;67.60;99958.22;4960966;28;101077;-72
2023/12/06 07:52:11;;;;;;;85.93;45.20;;;;;;;0.02;67.58;99940.97;4972425;28;96805;-72
2023/12/06 07:54:37;;;;;;;82.77;42.60;;;;;;;0.13;68.10;99961.66;4955783;28;96843;-72
2023/12/06 07:57:03;;;;;;;83.27;43.50;;;;;;;-0.07;68.22;99957.28;4959729;28;97553;-72
2023/12/06 07:59:28;;;;;;;89.70;44.03;;;;;;;-0.03;68.25;99953.88;4958163;28;97932;-72
2023/12/06 08:01:55;;;;;;;89.77;44.63;;;;;;;0.01;68.52;99959.03;4956548;28;97346;-74
2023/12/06 08:04:21;;;;;;;85.60;44.80;;;;;;;0.10;68.28;99962.50;4955572;28;96849;-72
2023/12/06 08:06:46;;;;;;;81.97;43.43;;;;;;;-0.01;68.34;99971.91;4970694;28;97472;-72
2023/12/06 08:09:12;;;;;;;80.57;42.50;;;;;;;-0.22;69.10;99972.72;4986481;28;97488;-74
2023/12/06 08:11:41;;;;;;;79.70;41.83;;;;;;;-0.07;69.13;99964.16;4987300;28;96779;-72
2023/12/06 08:14:07;;;;;;;83.80;42.30;;;;;;;-0.20;69.16;99967.53;4980652;28;98319;-72
2023/12/06 08:16:32;;;;;;;82.57;44.30;;;;;;;-0.08;69.47;99968.47;4982694;28;97266;-74
2023/12/06 08:18:58;;;;;;;78.37;41.93;;;;;;;0.14;68.39;99963.34;4972749;28;97378;-74
2023/12/06 08:21:24;;;;;;;80.27;43.33;;;;;;;0.21;68.44;99981.47;4961990;28;96819;-74
2023/12/06 08:23:50;;;;;;;81.43;44.10;;;;;;;0.14;68.58;99977.13;4952361;28;97318;-73
2023/12/06 08:26:16;;;;;;;86.70;45.17;;;;;;;0.06;68.21;99981.44;4967048;28;101552;-73
2023/12/06 08:28:42;;;;;;;85.13;44.80;;;;;;;0.09;68.46;99981.44;4957275;28;97717;-73
2023/12/06 08:31:08;;;;;;;81.43;43.80;;;;;;;0.23;68.44;99973.69;4951836;28;98328;-74
2023/12/06 08:33:35;;;;;;;85.10;45.33;;;;;;;0.14;68.28;99974.53;4950123;28;97414;-74
2023/12/06 08:36:00;;;;;;;83.40;43.97;;;;;;;0.33;68.20;99959.97;4956634;28;102636;-73
2023/12/06 08:38:26;;;;;;;85.30;44.67;;;;;;;0.13;68.44;99971.97;4981758;28;97811;-77
2023/12/06 08:40:51;;;;;;;86.87;46.33;;;;;;;0.09;68.43;99953.03;4957440;28;96976;-76
2023/12/06 08:43:17;;;;;;;84.87;46.23;;;;;;;0.25;68.83;99960.81;4963460;28;96930;-75
2023/12/06 08:45:42;;;;;;;88.00;46.17;;;;;;;0.16;68.92;99953.91;4964223;28;101599;-76
2023/12/06 08:48:08;;;;;;;85.77;47.33;;;;;;;0.18;68.95;99954.78;4960049;28;101655;-77
2023/12/06 08:50:35;;;;;;;84.40;46.37;;;;;;;0.26;68.63;99947.88;4946081;28;97620;-78
2023/12/06 08:53:00;;;;;;;82.73;45.80;;;;;;;0.34;68.07;99938.44;4959155;28;96819;-78
2023/12/06 08:55:26;;;;;;;93.40;48.53;;;;;;;0.55;67.54;99958.25;4973664;28;101222;-75
2023/12/06 08:57:51;;;;;;;81.20;43.80;;;;;;;0.47;67.65;99956.53;4972534;28;98122;-75
2023/12/06 09:00:17;;;;;;;94.43;46.60;;;;;;;0.52;67.65;99966.00;4957555;28;96722;-75
2023/12/06 09:02:43;;;;;;;85.80;46.10;;;;;;;0.47;67.77;99974.59;4952238;28;96802;-75
2023/12/06 09:05:11;;;;;;;86.70;44.47;;;;;;;0.39;68.02;99970.31;4951957;28;97466;-76
2023/12/06 09:07:37;;;;;;;87.27;47.43;;;;;;;0.63;67.81;99971.19;4949956;28;101560;-76
2023/12/06 09:10:03;;;;;;;86.97;45.97;;;;;;;0.72;67.50;99960.00;4954960;28;96770;-77
2023/12/06 09:12:29;;;;;;;82.27;45.10;;;;;;;0.73;67.33;99985.84;4988423;28;97328;-76
2023/12/06 09:14:55;;;;;;;76.53;44.50;;;;;;;0.79;67.51;99966.91;4935165;28;102019;-76
2023/12/06 09:17:20;;;;;;;78.53;44.70;;;;;;;0.85;67.19;99983.28;4971257;28;101323;-76
2023/12/06 09:19:46;;;;;;;78.33;42.87;;;;;;;0.88;67.38;99978.09;4964580;28;96766;-78
2023/12/06 09:22:11;;;;;;;76.57;43.80;;;;;;;0.92;67.36;99980.69;4988434;28;98526;-76
2023/12/06 09:24:37;;;;;;;82.13;43.27;;;;;;;0.88;67.46;99974.66;4956821;28;97330;-76
2023/12/06 09:27:03;;;;;;;81.13;42.67;;;;;;;0.77;67.37;99977.22;4955322;28;101542;-76
2023/12/06 09:29:29;;;;;;;79.03;44.70;;;;;;;0.85;67.23;99977.25;4951339;28;97265;-77
2023/12/06 09:31:54;;;;;;;73.33;42.63;;;;;;;0.97;67.53;99976.38;4971149;28;96812;-79
2023/12/06 09:34:20;;;;;;;75.93;43.53;;;;;;;1.14;67.07;99977.22;4970588;28;98494;-78
2023/12/06 09:36:46;;;;;;;75.87;40.93;;;;;;;1.36;66.71;99978.88;4983626;28;97337;-76
2023/12/06 09:39:15;;;;;;;70.47;41.37;;;;;;;1.27;66.57;99973.75;4970044;28;96753;-76
2023/12/06 09:41:42;;;;;;;73.73;41.57;;;;;;;1.33;66.64;99971.13;4984005;28;97252;-77
2023/12/06 09:44:08;;;;;;;70.13;39.53;;;;;;;1.40;66.19;99977.19;4960176;28;101608;-74
2023/12/06 09:46:33;;;;;;;75.40;40.30;;;;;;;1.30;66.51;99967.69;4966240;28;97699;-75
2023/12/06 09:48:59;;;;;;;69.47;39.70;;;;;;;1.39;66.15;99964.25;4984991;28;97877;-75
2023/12/06 09:51:25;;;;;;;77.50;43.23;;;;;;;1.29;66.56;99976.34;4978618;28;97213;-75
2023/12/06 09:53:51;;;;;;;75.63;40.20;;;;;;;1.26;66.56;99961.69;4962985;28;101355;-76
2023/12/06 09:56:16;;;;;;;70.63;41.20;;;;;;;1.42;66.73;99977.16;4975236;28;101344;-75
2023/12/06 09:58:43;;;;;;;75.83;41.93;;;;;;;1.44;66.04;99971.13;4958799;28;97003;-76
2023/12/06 10:01:09;;;;;;;79.23;41.20;;;;;;;1.31;66.79;99965.13;4950873;28;97105;-77
2023/12/06 10:03:35;;;;;;;75.87;40.20;;;;;;;1.57;66.59;99969.34;4963347;28;98046;-79
2023/12/06 10:06:04;;;;;;;70.97;40.60;;;;;;;1.64;66.52;99965.03;4939898;28;101321;-76
2023/12/06 10:08:32;;;;;;;70.30;39.80;;;;;;;1.63;65.71;99971.94;4961278;28;97245;-77
2023/12/06 10:11:06;;;;;;;67.83;37.73;;;;;;;1.68;65.57;99966.75;4949504;28;96993;-76
2023/12/06 10:13:40;;;;;;;68.13;38.63;;;;;;;1.73;65.55;99959.81;4978184;28;97205;-76
2023/12/06 10:16:16;;;;;;;69.73;39.90;;;;;;;1.64;65.97;99955.53;4964954;28;97685;-76
2023/12/06 10:18:45;;;;;;;70.37;37.87;;;;;;;1.55;65.66;99955.59;4937898;28;97220;-77
2023/12/06 10:21:10;;;;;;;68.93;38.23;;;;;;;1.39;66.71;99954.75;4980659;28;97080;-77
2023/12/06 10:23:36;;;;;;;67.03;37.93;;;;;;;1.48;66.85;99962.47;4974103;28;98075;-77
2023/12/06 10:26:03;;;;;;;64.73;38.20;;;;;;;1.44;66.75;99950.44;4954723;28;101024;-77
2023/12/06 10:28:29;;;;;;;65.20;34.37;;;;;;;1.51;66.61;99959.03;4969906;28;97139;-77
2023/12/06 10:31:04;;;;;;;67.00;37.13;;;;;;;1.61;66.42;99949.53;4945308;28;97214;-76
2023/12/06 10:33:31;;;;;;;67.07;39.03;;;;;;;1.53;66.41;99962.47;4947469;28;101610;-76
2023/12/06 10:36:00;;;;;;;70.40;40.57;;;;;;;1.41;66.94;99962.53;4980952;28;97488;-71
2023/12/06 10:38:28;;;;;;;67.87;37.00;;;;;;;1.53;66.96;99965.91;4967526;28;96826;-70
2023/12/06 10:40:54;;;;;;;67.13;37.93;;;;;;;1.41;66.47;99941.81;4970141;28;97328;-70
2023/12/06 10:43:21;;;;;;;65.00;37.43;;;;;;;1.43;66.84;99950.44;4976996;28;97337;-72
2023/12/06 10:45:48;;;;;;;74.37;40.10;;;;;;;1.65;66.20;99959.84;4962678;28;101337;-70
2023/12/06 10:48:15;;;;;;;71.47;40.73;;;;;;;1.65;66.11;99959.00;4959766;28;96830;-70
2023/12/06 10:50:42;;;;;;;70.77;39.40;;;;;;;1.69;66.60;99961.56;4953920;28;96977;-70
2023/12/06 10:53:08;;;;;;;84.90;44.40;;;;;;;1.91;65.60;99939.03;4955850;28;99311;-70
2023/12/06 10:55:34;;;;;;;66.50;39.13;;;;;;;1.96;66.01;99941.59;4975602;28;97421;-69
2023/12/06 10:58:00;;;;;;;67.60;38.40;;;;;;;2.01;65.81;99943.31;4954644;28;97660;-70
2023/12/06 11:00:26;;;;;;;68.73;38.10;;;;;;;1.96;65.74;99951.97;4958677;28;97160;-70
2023/12/06 11:02:55;;;;;;;68.40;38.13;;;;;;;1.99;65.42;99950.22;4943899;28;100920;-71
2023/12/06 11:05:24;;;;;;;66.03;37.73;;;;;;;2.00;65.16;99933.81;4969581;28;97846;-70
2023/12/06 11:08:01;;;;;;;73.37;40.33;;;;;;;2.02;65.43;99934.66;4961800;28;97462;-72
2023/12/06 11:11:01;;;;;;;73.47;38.93;;;;;;;2.06;65.60;99947.59;4981482;28;97248;-70